Time;durP1;ratioP1;P1;durP2;ratioP2;P2;SDS_P1;SDS_P2;PMS_P1;PMS_P2;Temp;Humidity;BMP_temperature;BMP_pressure;BME280_temperature;BME280_humidity;BME280_pressure;Samples;Min_cycle;Max_cycle;Signal;HPM_P1;HPM_P2
2024/01/15 00:00:14;;;;;;;28.20;17.07;;;4.40;99.90;;;;;;5061512;28;20191;-36
2024/01/15 00:02:40;;;;;;;25.67;16.25;;;4.40;99.90;;;;;;5007003;28;20454;-39
2024/01/15 00:05:06;;;;;;;30.27;17.30;;;4.40;99.90;;;;;;5040624;28;20172;-38
2024/01/15 00:07:34;;;;;;;31.52;16.50;;;4.40;99.90;;;;;;5040108;28;20189;-39
2024/01/15 00:10:03;;;;;;;31.60;16.48;;;4.40;99.90;;;;;;5040584;28;20212;-38
2024/01/15 00:12:29;;;;;;;27.83;15.40;;;4.50;99.90;;;;;;5039715;28;20181;-37
2024/01/15 00:14:55;;;;;;;27.27;16.67;;;4.40;99.90;;;;;;5025170;28;20204;-40
2024/01/15 00:17:21;;;;;;;28.08;15.38;;;4.40;99.90;;;;;;5068649;28;20186;-38
2024/01/15 00:19:47;;;;;;;29.53;14.67;;;4.40;99.90;;;;;;5045290;28;20242;-35
2024/01/15 00:22:13;;;;;;;28.60;16.30;;;4.40;99.90;;;;;;5080238;28;20447;-30
2024/01/15 00:24:44;;;;;;;25.50;14.30;;;4.40;99.90;;;;;;5057044;28;20186;-35
2024/01/15 00:27:10;;;;;;;31.98;16.85;;;4.40;99.90;;;;;;5077232;28;20189;-39
2024/01/15 00:29:38;;;;;;;26.27;14.38;;;4.40;99.90;;;;;;5080485;28;20190;-37
2024/01/15 00:32:04;;;;;;;28.05;16.02;;;4.50;99.90;;;;;;5080031;28;20187;-38
2024/01/15 00:34:30;;;;;;;26.02;15.45;;;4.40;99.90;;;;;;5074693;28;20214;-34
2024/01/15 00:36:59;;;;;;;27.90;16.08;;;4.40;99.90;;;;;;5070454;28;20175;-38
2024/01/15 00:39:26;;;;;;;24.50;13.90;;;4.40;99.90;;;;;;5080481;28;20210;-37
2024/01/15 00:41:52;;;;;;;21.77;13.65;;;4.40;99.90;;;;;;5080161;28;20994;-34
2024/01/15 00:44:17;;;;;;;30.75;15.43;;;4.40;99.90;;;;;;5071635;28;20175;-37
2024/01/15 00:46:45;;;;;;;35.13;15.70;;;4.40;99.90;;;;;;5062360;28;20186;-36
2024/01/15 00:49:13;;;;;;;22.10;13.23;;;4.40;99.90;;;;;;5079973;28;20528;-37
2024/01/15 00:51:39;;;;;;;26.08;15.32;;;4.40;99.90;;;;;;5062217;28;20674;-36
2024/01/15 00:54:08;;;;;;;26.50;15.25;;;4.40;99.90;;;;;;5078448;28;20262;-39
2024/01/15 00:56:37;;;;;;;27.00;14.95;;;4.40;99.90;;;;;;5044959;28;20210;-39
2024/01/15 00:59:03;;;;;;;26.58;14.55;;;4.40;99.90;;;;;;5079901;28;20218;-36
2024/01/15 01:01:29;;;;;;;22.67;14.13;;;4.40;99.90;;;;;;5067350;28;20203;-39
2024/01/15 01:03:55;;;;;;;24.45;14.52;;;4.40;99.90;;;;;;5079855;28;20305;-33
2024/01/15 01:06:22;;;;;;;23.05;13.52;;;4.50;99.90;;;;;;5080063;28;20175;-40
2024/01/15 01:08:49;;;;;;;24.08;14.80;;;4.40;99.90;;;;;;5079431;28;20816;-35
2024/01/15 01:11:15;;;;;;;23.92;15.45;;;4.40;99.90;;;;;;5080709;28;20317;-37
2024/01/15 01:13:45;;;;;;;26.60;14.15;;;4.40;99.90;;;;;;5045037;28;20287;-35
2024/01/15 01:16:15;;;;;;;23.67;13.13;;;4.40;99.90;;;;;;5079891;28;20725;-35
2024/01/15 01:18:42;;;;;;;25.10;16.23;;;4.40;99.90;;;;;;5074602;28;20215;-35
2024/01/15 01:21:07;;;;;;;22.02;13.77;;;4.40;99.90;;;;;;5059636;28;20915;-34
2024/01/15 01:23:33;;;;;;;24.50;15.07;;;4.40;99.90;;;;;;5059593;28;20221;-36
2024/01/15 01:26:00;;;;;;;23.87;13.37;;;4.40;99.90;;;;;;5059526;28;20188;-34
2024/01/15 01:28:26;;;;;;;21.48;14.07;;;4.40;99.90;;;;;;5040728;28;20211;-36
2024/01/15 01:30:54;;;;;;;22.05;13.95;;;4.40;99.90;;;;;;5059463;28;20195;-36
2024/01/15 01:33:20;;;;;;;20.73;13.20;;;4.40;99.90;;;;;;5058972;28;20211;-38
2024/01/15 01:35:47;;;;;;;24.40;14.83;;;4.40;99.90;;;;;;5078058;28;20187;-36
2024/01/15 01:38:15;;;;;;;22.92;14.85;;;4.40;99.90;;;;;;5077899;28;20460;-36
2024/01/15 01:40:43;;;;;;;22.73;14.18;;;4.40;99.90;;;;;;5041507;28;20180;-31
2024/01/15 01:43:10;;;;;;;23.80;14.35;;;4.40;99.90;;;;;;5059092;28;20225;-33
2024/01/15 01:45:38;;;;;;;27.27;14.15;;;4.40;99.90;;;;;;5063794;28;20190;-38
2024/01/15 01:48:05;;;;;;;22.38;14.40;;;4.40;99.90;;;;;;5079142;28;20256;-35
2024/01/15 01:50:36;;;;;;;20.85;12.73;;;4.40;99.90;;;;;;5063897;28;20238;-34
2024/01/15 01:53:04;;;;;;;24.42;14.35;;;4.40;99.90;;;;;;5037390;28;20255;-36
2024/01/15 01:55:33;;;;;;;23.33;13.35;;;4.40;99.90;;;;;;5073856;28;20610;-38
2024/01/15 01:58:02;;;;;;;24.70;13.40;;;4.50;99.90;;;;;;5076639;28;20658;-37
2024/01/15 02:00:30;;;;;;;25.83;14.80;;;4.40;99.90;;;;;;5079271;28;20195;-32
2024/01/15 02:02:56;;;;;;;26.85;13.77;;;4.40;99.90;;;;;;5078475;28;20570;-37
2024/01/15 02:05:25;;;;;;;22.83;13.60;;;4.40;99.90;;;;;;5078586;28;20175;-33
2024/01/15 02:07:51;;;;;;;26.88;14.13;;;4.40;99.90;;;;;;5060550;28;20180;-34
2024/01/15 02:10:17;;;;;;;19.00;12.32;;;4.40;99.90;;;;;;5079241;28;20221;-36
2024/01/15 02:12:44;;;;;;;22.02;12.82;;;4.40;99.90;;;;;;5081927;28;20886;-40
2024/01/15 02:15:10;;;;;;;22.77;13.60;;;4.40;99.90;;;;;;5051691;28;20216;-37
2024/01/15 02:17:56;;;;;;;19.83;13.00;;;4.40;99.90;;;;;;5059349;28;20180;-36
2024/01/15 02:20:22;;;;;;;23.27;13.60;;;4.40;99.90;;;;;;5024022;28;20207;-34
2024/01/15 02:22:48;;;;;;;22.03;13.10;;;4.40;99.90;;;;;;5042566;28;20169;-36
2024/01/15 02:25:14;;;;;;;21.73;14.10;;;4.40;99.90;;;;;;5038687;28;20482;-39
2024/01/15 02:27:40;;;;;;;21.43;13.30;;;4.40;99.90;;;;;;5062656;28;20859;-39
2024/01/15 02:30:32;;;;;;;24.85;14.70;;;4.40;99.90;;;;;;5063492;28;21115;-35
2024/01/15 02:32:58;;;;;;;23.52;12.80;;;4.40;99.90;;;;;;5062536;28;20192;-35
2024/01/15 02:35:24;;;;;;;19.15;12.63;;;4.40;99.90;;;;;;5061792;28;20176;-35
2024/01/15 02:37:50;;;;;;;20.60;13.53;;;4.40;99.90;;;;;;5061986;28;20187;-32
2024/01/15 02:40:16;;;;;;;21.03;12.60;;;4.40;99.90;;;;;;5061993;28;20878;-36
2024/01/15 02:42:42;;;;;;;18.50;11.20;;;4.40;99.90;;;;;;5043533;28;20468;-40
2024/01/15 02:45:08;;;;;;;19.60;12.00;;;4.40;99.90;;;;;;5062043;28;20368;-35
2024/01/15 02:47:37;;;;;;;18.23;11.77;;;4.40;99.90;;;;;;5060169;28;20462;-35
2024/01/15 02:50:03;;;;;;;17.85;10.55;;;4.40;99.90;;;;;;5061464;28;20886;-38
2024/01/15 02:52:29;;;;;;;19.25;10.90;;;4.40;99.90;;;;;;5061780;28;20659;-36
2024/01/15 02:54:55;;;;;;;19.53;11.23;;;4.40;99.90;;;;;;5079280;28;20197;-29
2024/01/15 02:57:23;;;;;;;16.10;10.47;;;4.40;99.90;;;;;;5064465;28;20441;-37
2024/01/15 02:59:49;;;;;;;14.43;9.85;;;4.40;99.90;;;;;;5062849;28;20477;-35
2024/01/15 03:02:18;;;;;;;15.82;10.52;;;4.40;99.90;;;;;;5082432;28;20180;-36
2024/01/15 03:04:45;;;;;;;15.02;10.27;;;4.40;99.90;;;;;;5054794;28;20286;-40
2024/01/15 03:07:10;;;;;;;18.27;10.60;;;4.50;99.90;;;;;;5044038;28;20201;-35
2024/01/15 03:09:36;;;;;;;16.90;10.40;;;4.40;99.90;;;;;;5061458;28;20976;-34
2024/01/15 03:12:02;;;;;;;13.23;9.60;;;4.40;99.90;;;;;;5061808;28;20495;-32
2024/01/15 03:14:29;;;;;;;14.23;9.43;;;4.40;99.90;;;;;;5061849;28;20522;-34
2024/01/15 03:16:55;;;;;;;11.90;8.98;;;4.40;99.90;;;;;;5061713;28;20218;-36
2024/01/15 03:19:23;;;;;;;15.55;10.02;;;4.40;99.90;;;;;;5061689;28;20215;-38
2024/01/15 03:21:49;;;;;;;14.82;9.40;;;4.40;99.90;;;;;;5062110;28;20217;-38
2024/01/15 03:24:19;;;;;;;13.97;9.90;;;4.40;99.90;;;;;;5065306;28;21115;-36
2024/01/15 03:26:45;;;;;;;13.55;9.45;;;4.40;99.90;;;;;;5057837;28;21023;-36
2024/01/15 03:29:11;;;;;;;13.60;8.80;;;4.40;99.90;;;;;;5063700;28;20214;-38
2024/01/15 03:31:38;;;;;;;15.73;9.77;;;4.40;99.90;;;;;;5092917;22;20933;-37
2024/01/15 03:34:04;;;;;;;12.43;8.57;;;4.40;99.90;;;;;;5102965;28;20478;-40
2024/01/15 03:36:34;;;;;;;15.90;10.37;;;4.40;99.90;;;;;;5085142;28;20186;-40
2024/01/15 03:39:01;;;;;;;15.50;9.65;;;4.40;99.90;;;;;;5103435;28;20467;-38
2024/01/15 03:41:29;;;;;;;14.60;9.35;;;4.40;99.90;;;;;;5082302;28;20199;-39
2024/01/15 03:43:55;;;;;;;17.77;10.50;;;4.40;99.90;;;;;;5099618;28;20304;-40
2024/01/15 03:46:23;;;;;;;13.75;9.70;;;4.40;99.90;;;;;;5080666;28;20741;-31
2024/01/15 03:48:49;;;;;;;14.15;10.05;;;4.40;99.90;;;;;;5102486;28;20198;-33
2024/01/15 03:51:17;;;;;;;12.13;9.50;;;4.40;99.90;;;;;;5101614;28;20186;-30
2024/01/15 03:53:43;;;;;;;14.80;10.13;;;4.40;99.90;;;;;;5101389;28;20458;-37
2024/01/15 03:56:11;;;;;;;13.68;9.40;;;4.40;99.90;;;;;;5083046;28;20541;-34
2024/01/15 03:58:38;;;;;;;15.87;9.13;;;4.40;99.90;;;;;;5101787;28;20213;-37
2024/01/15 04:01:09;;;;;;;13.32;9.88;;;4.50;99.90;;;;;;5094169;28;20832;-35
2024/01/15 04:03:34;;;;;;;12.80;9.38;;;4.40;99.90;;;;;;5083110;28;20226;-37
2024/01/15 04:06:00;;;;;;;13.87;10.23;;;4.40;99.90;;;;;;5101382;28;20190;-28
2024/01/15 04:08:26;;;;;;;12.70;9.53;;;4.40;99.90;;;;;;5100965;28;20436;-33
2024/01/15 04:10:52;;;;;;;13.73;9.50;;;4.40;99.90;;;;;;5100403;28;20489;-31
2024/01/15 04:13:18;;;;;;;13.53;10.13;;;4.40;99.90;;;;;;5081755;28;20440;-38
2024/01/15 04:15:48;;;;;;;15.13;10.18;;;4.40;99.90;;;;;;5082067;28;20432;-37
2024/01/15 04:18:15;;;;;;;12.57;9.77;;;4.40;99.90;;;;;;5100840;28;20206;-39
2024/01/15 04:20:42;;;;;;;15.50;9.00;;;4.40;99.90;;;;;;5043418;28;20187;-35
2024/01/15 04:23:13;;;;;;;10.85;8.77;;;4.40;99.90;;;;;;5074016;28;20911;-37
2024/01/15 04:25:42;;;;;;;15.50;10.20;;;4.40;99.90;;;;;;5082058;28;20185;-37
2024/01/15 04:28:09;;;;;;;15.40;10.20;;;4.40;99.90;;;;;;5100252;28;20228;-35
2024/01/15 04:30:38;;;;;;;14.15;10.30;;;4.40;99.90;;;;;;5101245;28;20210;-35
2024/01/15 04:33:04;;;;;;;13.10;9.48;;;4.40;99.90;;;;;;5069053;28;20194;-35
2024/01/15 04:35:33;;;;;;;11.35;9.50;;;4.40;99.90;;;;;;5045040;28;20171;-36
2024/01/15 04:38:00;;;;;;;13.25;9.25;;;4.40;99.90;;;;;;5080030;28;20714;-40
2024/01/15 04:40:27;;;;;;;11.20;8.43;;;4.40;99.90;;;;;;5079243;28;20195;-33
2024/01/15 04:42:54;;;;;;;12.90;8.73;;;4.40;99.90;;;;;;5080326;28;20178;-40
2024/01/15 04:45:28;;;;;;;11.05;8.25;;;4.40;99.90;;;;;;5096870;28;20352;-36
2024/01/15 04:47:58;;;;;;;14.30;8.45;;;4.40;99.90;;;;;;5079593;28;20187;-29
2024/01/15 04:50:24;;;;;;;11.30;8.98;;;4.40;99.90;;;;;;5076794;28;20658;-35
2024/01/15 04:52:50;;;;;;;11.27;8.90;;;4.40;99.90;;;;;;5088754;28;20205;-37
2024/01/15 04:55:17;;;;;;;13.15;8.38;;;4.50;99.90;;;;;;5080019;28;20174;-38
2024/01/15 04:57:45;;;;;;;13.85;8.02;;;4.40;99.90;;;;;;5079997;28;20622;-36
2024/01/15 05:00:14;;;;;;;10.85;8.10;;;4.40;99.90;;;;;;5066119;28;20211;-38
2024/01/15 05:02:41;;;;;;;11.48;8.75;;;4.40;99.90;;;;;;5079667;28;21104;-34
2024/01/15 05:05:07;;;;;;;10.55;8.25;;;4.40;99.90;;;;;;5090955;28;20210;-31
2024/01/15 05:07:36;;;;;;;10.98;8.25;;;4.40;99.90;;;;;;5062091;28;20721;-36
2024/01/15 05:10:03;;;;;;;9.88;8.02;;;4.40;99.90;;;;;;5061616;28;20222;-34
2024/01/15 05:12:29;;;;;;;11.52;8.63;;;4.40;99.90;;;;;;5045124;28;20186;-32
2024/01/15 05:14:58;;;;;;;12.02;9.07;;;4.40;99.90;;;;;;5079551;28;20195;-35
2024/01/15 05:17:26;;;;;;;11.55;8.15;;;4.40;99.90;;;;;;5095835;28;20616;-35
2024/01/15 05:19:53;;;;;;;27.05;9.07;;;4.40;99.90;;;;;;5097641;28;20779;-34
2024/01/15 05:22:21;;;;;;;10.48;7.95;;;4.40;99.90;;;;;;5073341;28;20740;-32
2024/01/15 05:24:49;;;;;;;11.15;8.70;;;4.40;99.90;;;;;;5083899;28;20189;-37
2024/01/15 05:27:18;;;;;;;11.57;7.60;;;4.40;99.90;;;;;;5081320;28;20193;-30
2024/01/15 05:29:44;;;;;;;10.40;8.07;;;4.40;99.90;;;;;;5081458;28;20205;-35
2024/01/15 05:32:10;;;;;;;11.35;8.15;;;4.40;99.90;;;;;;5080856;28;20813;-33
2024/01/15 05:34:36;;;;;;;12.18;8.13;;;4.40;99.90;;;;;;5098464;28;20187;-37
2024/01/15 05:37:02;;;;;;;12.13;7.57;;;4.40;99.90;;;;;;5061893;28;20200;-34
2024/01/15 05:39:28;;;;;;;11.30;7.40;;;4.40;99.90;;;;;;5072434;28;20476;-36
2024/01/15 05:42:00;;;;;;;10.05;7.68;;;4.40;99.90;;;;;;5097258;28;20225;-38
2024/01/15 05:44:26;;;;;;;10.77;7.68;;;4.40;99.90;;;;;;5094372;28;20202;-35
2024/01/15 05:46:53;;;;;;;10.20;7.77;;;4.40;99.90;;;;;;5079359;28;20183;-33
2024/01/15 05:49:19;;;;;;;8.82;7.50;;;4.40;99.90;;;;;;5092157;28;20451;-33
2024/01/15 05:51:45;;;;;;;10.52;7.00;;;4.40;99.90;;;;;;5083115;28;20237;-31
2024/01/15 05:54:14;;;;;;;13.10;7.53;;;4.40;99.90;;;;;;5079619;28;20194;-36
2024/01/15 05:56:42;;;;;;;12.48;6.63;;;4.40;99.90;;;;;;5104043;28;20198;-36
2024/01/15 05:59:10;;;;;;;9.77;6.88;;;4.40;99.90;;;;;;5100703;28;20221;-40
2024/01/15 06:01:36;;;;;;;8.88;6.60;;;4.40;99.90;;;;;;5057624;28;20207;-39
2024/01/15 06:04:02;;;;;;;10.73;7.78;;;4.40;99.90;;;;;;5064538;28;20721;-37
2024/01/15 06:06:28;;;;;;;11.00;7.10;;;4.40;99.90;;;;;;5091582;28;20271;-35
2024/01/15 06:08:54;;;;;;;9.32;6.50;;;4.40;99.90;;;;;;5077792;28;21033;-35
2024/01/15 06:11:20;;;;;;;8.00;6.50;;;4.40;99.90;;;;;;5067053;28;20189;-40
2024/01/15 06:13:46;;;;;;;9.53;6.63;;;4.40;99.90;;;;;;5104461;28;20178;-33
2024/01/15 06:16:23;;;;;;;10.20;7.50;;;4.40;99.90;;;;;;5076207;28;20865;-33
2024/01/15 06:18:51;;;;;;;9.63;6.65;;;4.40;99.90;;;;;;5079496;28;20225;-33
2024/01/15 06:21:17;;;;;;;9.60;7.25;;;4.40;99.90;;;;;;5083318;28;20852;-31
2024/01/15 06:23:43;;;;;;;12.75;7.18;;;4.40;99.90;;;;;;5104421;28;20571;-34
2024/01/15 06:26:12;;;;;;;8.15;6.75;;;4.40;99.90;;;;;;5068288;28;20187;-34
2024/01/15 06:28:39;;;;;;;8.43;6.60;;;4.40;99.90;;;;;;5082286;28;20763;-34
2024/01/15 06:31:06;;;;;;;7.57;6.38;;;4.40;99.90;;;;;;5082627;28;20217;-39
2024/01/15 06:33:32;;;;;;;8.75;6.38;;;4.40;99.90;;;;;;5080346;28;20205;-40
2024/01/15 06:35:58;;;;;;;7.40;6.27;;;4.40;99.90;;;;;;5084008;28;20661;-37
2024/01/15 06:38:25;;;;;;;12.38;6.38;;;4.50;99.90;;;;;;5104396;28;20460;-37
2024/01/15 06:40:51;;;;;;;7.95;5.45;;;4.50;99.90;;;;;;5104871;28;20223;-37
2024/01/15 06:43:17;;;;;;;8.65;5.90;;;4.40;99.90;;;;;;5070381;28;20202;-41
2024/01/15 06:45:46;;;;;;;10.27;5.50;;;4.40;99.90;;;;;;5105748;28;20179;-41
2024/01/15 06:48:14;;;;;;;7.77;5.97;;;4.50;99.90;;;;;;5098155;28;20175;-39
2024/01/15 06:50:40;;;;;;;7.95;5.88;;;4.40;99.90;;;;;;5106243;28;20424;-41
2024/01/15 06:53:06;;;;;;;7.60;5.50;;;4.40;99.90;;;;;;5106733;28;20231;-38
2024/01/15 06:55:33;;;;;;;7.65;5.15;;;4.40;99.90;;;;;;5071075;28;20739;-32
2024/01/15 06:57:59;;;;;;;7.22;5.68;;;4.40;99.90;;;;;;5059210;28;20175;-34
2024/01/15 07:00:28;;;;;;;6.85;5.20;;;4.40;99.90;;;;;;5098520;28;20206;-37
2024/01/15 07:02:55;;;;;;;5.65;4.95;;;4.40;99.90;;;;;;5086015;28;20572;-41
2024/01/15 07:05:21;;;;;;;7.53;5.22;;;4.50;99.90;;;;;;5080559;28;20178;-33
2024/01/15 07:07:52;;;;;;;6.07;4.30;;;4.40;99.90;;;;;;5106626;28;20201;-39
2024/01/15 07:10:19;;;;;;;5.72;4.72;;;4.40;99.90;;;;;;5068548;28;20592;-40
2024/01/15 07:12:47;;;;;;;6.85;4.80;;;4.40;99.90;;;;;;5084121;28;20190;-40
2024/01/15 07:15:13;;;;;;;7.63;5.50;;;4.40;99.90;;;;;;5093262;28;20332;-37
2024/01/15 07:17:42;;;;;;;5.93;4.63;;;4.40;99.90;;;;;;5099706;28;20289;-34
2024/01/15 07:20:09;;;;;;;6.55;4.50;;;4.40;99.90;;;;;;5099240;28;20214;-39
2024/01/15 07:22:38;;;;;;;6.25;4.72;;;4.50;99.90;;;;;;5102935;28;20198;-35
2024/01/15 07:25:05;;;;;;;6.70;4.82;;;4.40;99.90;;;;;;5065687;28;20178;-39
2024/01/15 07:27:31;;;;;;;5.68;5.00;;;4.40;99.90;;;;;;5084682;28;20205;-34
2024/01/15 07:30:01;;;;;;;5.90;5.25;;;4.40;99.90;;;;;;5102165;28;20210;-32
2024/01/15 07:32:28;;;;;;;6.32;5.25;;;4.40;99.90;;;;;;5067747;28;20308;-40
2024/01/15 07:34:54;;;;;;;6.15;5.55;;;4.40;99.90;;;;;;5085251;28;20187;-30
2024/01/15 07:37:26;;;;;;;6.67;6.00;;;4.40;99.90;;;;;;5085525;28;20193;-34
2024/01/15 07:39:52;;;;;;;8.52;5.53;;;4.40;99.90;;;;;;5085418;28;21057;-40
2024/01/15 07:42:18;;;;;;;9.30;5.97;;;4.40;99.90;;;;;;5102915;28;20183;-33
2024/01/15 07:44:46;;;;;;;7.27;6.10;;;4.40;99.90;;;;;;5085507;28;20448;-38
2024/01/15 07:47:17;;;;;;;9.35;7.35;;;4.40;99.90;;;;;;5085055;28;20404;-36
2024/01/15 07:49:47;;;;;;;8.10;6.65;;;4.40;99.90;;;;;;5102398;28;20217;-40
2024/01/15 07:52:15;;;;;;;8.63;6.93;;;4.40;99.90;;;;;;5075903;28;20259;-35
2024/01/15 07:54:44;;;;;;;11.55;7.35;;;4.40;99.90;;;;;;5102340;28;20700;-30
2024/01/15 07:57:13;;;;;;;11.80;7.97;;;4.40;99.90;;;;;;5094362;28;20680;-39
2024/01/15 07:59:40;;;;;;;8.68;6.53;;;4.40;99.90;;;;;;5096057;28;20297;-38
2024/01/15 08:02:06;;;;;;;11.73;7.15;;;4.40;99.90;;;;;;5082510;28;20294;-37
2024/01/15 08:04:36;;;;;;;7.50;6.40;;;4.40;99.90;;;;;;5075523;28;20218;-37
2024/01/15 08:07:06;;;;;;;9.07;7.03;;;4.50;99.90;;;;;;5095480;28;20203;-34
2024/01/15 08:09:35;;;;;;;9.35;7.13;;;4.40;99.90;;;;;;5096623;28;20288;-31
2024/01/15 08:12:01;;;;;;;10.15;7.00;;;4.50;99.90;;;;;;5077409;28;20210;-31
2024/01/15 08:14:29;;;;;;;8.90;6.85;;;4.40;99.90;;;;;;5099052;28;20292;-32
2024/01/15 08:16:56;;;;;;;8.13;7.13;;;4.40;99.90;;;;;;5073562;28;20204;-35
2024/01/15 08:19:27;;;;;;;9.00;6.85;;;4.40;99.90;;;;;;5093617;28;20476;-36
2024/01/15 08:21:55;;;;;;;9.02;6.35;;;4.40;99.90;;;;;;5075512;28;20198;-34
2024/01/15 08:24:21;;;;;;;13.93;7.13;;;4.40;99.90;;;;;;5095094;28;20194;-39
2024/01/15 08:26:47;;;;;;;9.27;6.90;;;4.40;99.90;;;;;;5097111;28;20551;-36
2024/01/15 08:29:16;;;;;;;8.95;6.75;;;4.40;99.90;;;;;;5091205;28;20483;-31
2024/01/15 08:31:42;;;;;;;9.80;7.03;;;4.40;99.90;;;;;;5060728;28;20619;-36
2024/01/15 08:34:08;;;;;;;8.70;6.27;;;4.40;99.90;;;;;;5060495;28;20221;-36
2024/01/15 08:36:36;;;;;;;9.20;6.90;;;4.40;99.90;;;;;;5077607;28;21216;-39
2024/01/15 08:39:05;;;;;;;7.38;6.28;;;4.40;99.90;;;;;;5082230;28;20649;-40
2024/01/15 08:41:32;;;;;;;7.82;6.60;;;4.40;99.90;;;;;;5078931;28;20545;-40
2024/01/15 08:44:11;;;;;;;7.38;6.38;;;4.40;99.90;;;;;;5081604;28;20191;-37
2024/01/15 08:46:39;;;;;;;10.65;6.93;;;4.40;99.90;;;;;;5076417;28;20253;-40
2024/01/15 08:49:05;;;;;;;8.00;5.95;;;4.40;99.90;;;;;;5096816;28;20213;-38
2024/01/15 08:51:31;;;;;;;8.50;5.63;;;4.40;99.90;;;;;;5078796;28;20209;-42
2024/01/15 08:53:58;;;;;;;7.20;6.25;;;4.40;99.90;;;;;;5078885;28;20221;-40
2024/01/15 08:56:24;;;;;;;7.38;6.57;;;4.40;99.90;;;;;;5078530;28;20183;-36
2024/01/15 08:58:50;;;;;;;6.77;5.43;;;4.40;99.90;;;;;;5065463;28;20233;-33
2024/01/15 09:01:16;;;;;;;9.32;6.15;;;4.40;99.90;;;;;;5057306;28;20457;-36
2024/01/15 09:03:42;;;;;;;6.18;5.63;;;4.40;99.90;;;;;;5078954;28;20199;-40
2024/01/15 09:06:10;;;;;;;6.35;5.55;;;4.40;99.90;;;;;;5079845;28;20825;-33
2024/01/15 09:08:37;;;;;;;6.38;5.60;;;4.40;99.90;;;;;;5078376;28;20210;-37
2024/01/15 09:11:03;;;;;;;6.55;5.93;;;4.40;99.90;;;;;;5059326;28;20247;-35
2024/01/15 09:13:33;;;;;;;6.28;5.50;;;4.40;99.90;;;;;;5094605;28;20269;-34
2024/01/15 09:16:02;;;;;;;6.78;5.20;;;4.50;99.90;;;;;;5075479;28;20186;-39
2024/01/15 09:18:28;;;;;;;5.38;4.88;;;4.40;99.90;;;;;;5073162;28;21024;-36
2024/01/15 09:20:58;;;;;;;7.50;5.13;;;4.40;99.90;;;;;;5080854;28;20198;-37
2024/01/15 09:23:25;;;;;;;5.50;4.47;;;4.40;99.90;;;;;;5078362;28;20263;-33
2024/01/15 09:25:52;;;;;;;5.10;4.50;;;4.40;99.90;;;;;;5094270;28;20178;-31
2024/01/15 09:28:19;;;;;;;6.72;5.07;;;4.40;99.90;;;;;;5096112;28;20507;-33
2024/01/15 09:30:47;;;;;;;4.93;4.53;;;4.40;99.90;;;;;;5100554;28;20235;-31
2024/01/15 09:33:15;;;;;;;4.55;4.15;;;4.40;99.90;;;;;;5103827;28;20199;-34
2024/01/15 09:35:43;;;;;;;5.43;4.93;;;4.40;99.90;;;;;;5079698;28;20292;-31
2024/01/15 09:38:09;;;;;;;5.40;4.20;;;4.40;99.90;;;;;;5079018;28;20823;-33
2024/01/15 09:40:38;;;;;;;5.10;4.60;;;4.40;99.90;;;;;;5094356;28;20214;-33
2024/01/15 09:43:05;;;;;;;4.90;4.50;;;4.40;99.90;;;;;;5087503;28;20899;-32
2024/01/15 09:45:31;;;;;;;4.30;3.90;;;4.40;99.90;;;;;;5103321;28;20179;-36
2024/01/15 09:48:00;;;;;;;5.53;4.45;;;4.40;99.90;;;;;;5082438;28;20214;-35
2024/01/15 09:50:28;;;;;;;4.20;3.80;;;4.40;99.90;;;;;;5103817;28;20221;-34
2024/01/15 09:52:57;;;;;;;4.85;3.95;;;4.40;99.90;;;;;;5102385;28;20198;-32
2024/01/15 09:55:23;;;;;;;4.60;4.20;;;4.40;99.90;;;;;;5097122;28;20226;-33
2024/01/15 09:57:51;;;;;;;4.90;4.40;;;4.40;99.90;;;;;;5065566;28;20171;-36
2024/01/15 10:00:20;;;;;;;5.63;4.47;;;4.40;99.90;;;;;;5081637;28;20217;-32
2024/01/15 10:02:46;;;;;;;4.70;4.20;;;4.40;99.90;;;;;;5086999;28;20252;-33
2024/01/15 10:05:18;;;;;;;4.93;4.20;;;4.40;99.90;;;;;;5098370;28;20315;-33
2024/01/15 10:07:49;;;;;;;4.88;4.28;;;4.40;99.90;;;;;;5075674;28;20226;-30
2024/01/15 10:10:18;;;;;;;4.30;3.55;;;4.40;99.90;;;;;;5098445;28;20218;-33
2024/01/15 10:12:44;;;;;;;4.13;3.72;;;4.40;99.90;;;;;;5094863;28;20190;-36
2024/01/15 10:15:13;;;;;;;3.97;3.67;;;4.40;99.90;;;;;;5097558;28;20183;-37
2024/01/15 10:17:40;;;;;;;4.47;3.90;;;4.40;99.90;;;;;;5095375;28;20224;-36
2024/01/15 10:20:12;;;;;;;5.13;3.35;;;4.40;99.90;;;;;;5093585;28;20214;-34
2024/01/15 10:22:46;;;;;;;4.28;3.97;;;4.40;99.90;;;;;;5079529;28;20205;-32
2024/01/15 10:25:16;;;;;;;3.72;3.42;;;4.40;99.90;;;;;;5097788;28;20174;-33
2024/01/15 10:27:42;;;;;;;4.25;3.60;;;4.40;99.90;;;;;;5083346;28;20187;-33
2024/01/15 10:30:13;;;;;;;4.30;3.90;;;4.40;99.90;;;;;;5102074;27;20302;-32
2024/01/15 10:32:59;;;;;;;4.07;3.67;;;4.40;99.90;;;;;;5077812;28;20284;-31
2024/01/15 10:35:31;;;;;;;5.28;4.88;;;4.40;99.90;;;;;;5102050;28;20706;-35
2024/01/15 10:38:00;;;;;;;3.85;3.55;;;4.40;99.90;;;;;;5108425;27;20174;-37
2024/01/15 10:40:29;;;;;;;4.30;3.90;;;4.40;99.90;;;;;;5098467;28;20218;-34
2024/01/15 10:42:57;;;;;;;3.83;3.10;;;4.40;99.90;;;;;;5088949;28;20969;-37
2024/01/15 10:45:24;;;;;;;3.33;3.03;;;4.40;99.90;;;;;;5076072;28;20707;-32
2024/01/15 10:47:58;;;;;;;3.50;3.20;;;4.40;99.90;;;;;;5094214;28;20716;-35
2024/01/15 10:50:24;;;;;;;3.55;3.10;;;4.40;99.90;;;;;;5093193;28;20248;-33
2024/01/15 10:52:51;;;;;;;6.82;3.65;;;4.40;99.90;;;;;;5093931;28;20718;-35
2024/01/15 10:55:18;;;;;;;4.07;3.67;;;4.40;99.90;;;;;;5080963;27;20213;-31
2024/01/15 10:57:45;;;;;;;3.90;3.50;;;4.40;99.90;;;;;;5063335;28;20713;-36
2024/01/15 11:00:14;;;;;;;3.78;3.47;;;4.40;99.90;;;;;;5094050;28;20306;-39
2024/01/15 11:02:41;;;;;;;4.80;4.40;;;4.40;99.90;;;;;;5096491;28;20182;-34
2024/01/15 11:05:10;;;;;;;4.10;3.80;;;4.40;99.90;;;;;;5066015;28;20186;-31
2024/01/15 11:07:41;;;;;;;3.75;3.40;;;4.50;99.90;;;;;;5097365;28;20227;-32
2024/01/15 11:10:10;;;;;;;4.20;3.80;;;4.40;99.90;;;;;;5081364;28;20248;-35
2024/01/15 11:12:36;;;;;;;3.33;3.03;;;4.40;99.90;;;;;;5083613;28;20186;-35
2024/01/15 11:15:09;;;;;;;5.50;3.50;;;4.50;99.90;;;;;;5078196;28;20347;-37
2024/01/15 11:18:01;;;;;;;4.05;3.40;;;4.40;99.90;;;;;;5095275;28;20213;-41
2024/01/15 11:20:27;;;;;;;3.50;3.20;;;4.40;99.90;;;;;;5098535;27;20259;-36
2024/01/15 11:22:53;;;;;;;3.60;3.30;;;4.40;99.90;;;;;;5069791;28;20285;-32
2024/01/15 11:25:22;;;;;;;3.92;3.60;;;4.40;99.90;;;;;;5081979;28;20182;-36
2024/01/15 11:27:54;;;;;;;3.50;3.17;;;4.40;99.90;;;;;;5082735;28;20197;-35
2024/01/15 11:30:27;;;;;;;3.58;3.28;;;4.40;99.90;;;;;;5091513;27;20712;-31
2024/01/15 11:32:56;;;;;;;3.08;2.88;;;4.40;99.90;;;;;;5090620;28;20251;-36
2024/01/15 11:35:24;;;;;;;3.35;3.05;;;4.40;99.90;;;;;;5043056;28;20191;-33
2024/01/15 11:37:57;;;;;;;3.63;3.08;;;4.50;99.90;;;;;;5092769;28;20183;-30
2024/01/15 11:40:35;;;;;;;3.75;3.45;;;4.50;99.90;;;;;;5082444;28;20218;-32
2024/01/15 11:43:05;;;;;;;3.92;2.80;;;4.50;99.90;;;;;;5081159;28;20202;-33
2024/01/15 11:45:33;;;;;;;3.20;2.63;;;4.50;99.90;;;;;;5098897;28;20189;-32
2024/01/15 11:48:13;;;;;;;3.10;2.90;;;4.40;99.90;;;;;;5064346;28;20923;-37
2024/01/15 11:50:43;;;;;;;5.60;3.00;;;4.40;99.90;;;;;;5093318;28;20463;-31
2024/01/15 11:53:34;;;;;;;3.75;2.80;;;4.40;99.90;;;;;;5090212;28;20191;-35
2024/01/15 11:56:03;;;;;;;7.10;2.78;;;4.40;99.90;;;;;;5078369;28;20203;-34
2024/01/15 11:58:35;;;;;;;5.28;2.70;;;4.50;99.90;;;;;;5077780;28;20237;-33
2024/01/15 12:01:02;;;;;;;3.08;2.83;;;4.50;99.90;;;;;;5093681;28;20187;-34
2024/01/15 12:03:35;;;;;;;4.38;2.72;;;4.50;99.90;;;;;;5072225;28;20205;-37
2024/01/15 12:06:01;;;;;;;6.13;2.70;;;4.50;99.90;;;;;;5099420;27;20947;-36
2024/01/15 12:08:30;;;;;;;2.80;2.60;;;4.50;99.90;;;;;;5104144;27;20261;-30
2024/01/15 12:11:01;;;;;;;5.00;2.80;;;4.50;99.90;;;;;;5076669;28;20550;-36
2024/01/15 12:13:27;;;;;;;2.80;2.45;;;4.50;99.90;;;;;;5083170;28;20922;-36
2024/01/15 12:15:57;;;;;;;3.67;2.30;;;4.50;99.90;;;;;;5098257;28;20202;-36
2024/01/15 12:18:23;;;;;;;4.65;2.50;;;4.50;99.90;;;;;;5093571;28;20184;-35
2024/01/15 12:20:54;;;;;;;3.30;2.67;;;4.50;99.90;;;;;;5057845;28;20186;-40
2024/01/15 12:23:20;;;;;;;2.50;2.30;;;4.50;99.90;;;;;;5090664;28;20207;-37
2024/01/15 12:25:47;;;;;;;4.80;2.90;;;4.50;99.90;;;;;;5093333;28;20215;-34
2024/01/15 12:28:15;;;;;;;3.00;2.80;;;4.50;99.90;;;;;;5090611;28;20193;-39
2024/01/15 12:30:41;;;;;;;2.20;2.10;;;4.50;99.90;;;;;;5092677;28;20609;-38
2024/01/15 12:33:07;;;;;;;2.70;2.50;;;4.50;99.90;;;;;;5055791;28;20213;-38
2024/01/15 12:35:34;;;;;;;3.85;2.50;;;4.50;99.90;;;;;;5073712;28;20435;-41
2024/01/15 12:38:03;;;;;;;4.65;2.97;;;4.50;99.90;;;;;;5058632;28;20191;-40
2024/01/15 12:40:32;;;;;;;3.38;2.70;;;4.50;99.90;;;;;;5092225;28;20225;-39
2024/01/15 12:43:00;;;;;;;2.92;2.60;;;4.60;99.90;;;;;;5094229;28;20278;-39
2024/01/15 12:45:27;;;;;;;3.10;2.80;;;4.50;99.90;;;;;;5090751;28;20203;-34
2024/01/15 12:47:53;;;;;;;4.80;3.30;;;4.60;99.90;;;;;;5076490;28;20204;-38
2024/01/15 12:50:26;;;;;;;6.53;2.80;;;4.60;99.90;;;;;;5061470;28;20724;-39